createdAt,value
2023-05-20T00:00:35.034Z,15.58
2023-05-20T00:03:01.608Z,15.57
2023-05-20T00:05:28.151Z,15.52
2023-05-20T00:07:54.572Z,15.53
2023-05-20T00:10:21.034Z,15.51
2023-05-20T00:12:47.528Z,15.49
2023-05-20T00:15:14.006Z,15.47
2023-05-20T00:17:40.689Z,15.44
2023-05-20T00:20:08.380Z,15.44
2023-05-20T00:22:34.854Z,15.42
2023-05-20T00:25:01.329Z,15.40
2023-05-20T00:27:27.753Z,15.39
2023-05-20T00:29:54.244Z,15.36
2023-05-20T00:32:21.000Z,15.35
2023-05-20T00:34:57.205Z,15.30
2023-05-20T00:37:24.307Z,15.29
2023-05-20T00:39:51.131Z,15.24
2023-05-20T00:42:24.998Z,15.24
2023-05-20T00:44:51.779Z,15.23
2023-05-20T00:47:20.183Z,15.21
2023-05-20T00:49:50.257Z,15.18
2023-05-20T00:52:19.566Z,15.14
2023-05-20T00:54:46.273Z,15.12
2023-05-20T00:57:13.736Z,15.09
2023-05-20T00:59:41.780Z,15.02
2023-05-20T01:02:09.447Z,15.02
2023-05-20T01:04:36.407Z,14.99
2023-05-20T01:07:05.604Z,14.98
2023-05-20T01:09:33.125Z,14.94
2023-05-20T01:12:13.228Z,14.92
2023-05-20T01:14:56.578Z,14.90
2023-05-20T01:17:27.155Z,14.89
2023-05-20T01:19:56.128Z,14.86
2023-05-20T01:22:27.316Z,14.85
2023-05-20T01:24:53.811Z,14.84
2023-05-20T01:27:22.484Z,14.82
2023-05-20T01:29:51.052Z,14.79
2023-05-20T01:32:24.771Z,14.78
2023-05-20T01:34:52.864Z,14.76
2023-05-20T01:37:20.030Z,14.73
2023-05-20T01:39:49.061Z,14.71
2023-05-20T01:42:17.117Z,14.68
2023-05-20T01:44:43.859Z,14.67
2023-05-20T01:47:10.691Z,14.63
2023-05-20T01:49:37.214Z,14.61
2023-05-20T01:52:04.463Z,14.58
2023-05-20T01:54:31.046Z,14.56
2023-05-20T01:56:57.586Z,14.54
2023-05-20T01:59:24.180Z,14.51
2023-05-20T02:01:51.036Z,14.49
2023-05-20T02:04:19.180Z,14.47
2023-05-20T02:06:46.142Z,14.46
2023-05-20T02:09:12.941Z,14.43
2023-05-20T02:11:39.406Z,14.40
2023-05-20T02:14:06.335Z,14.38
2023-05-20T02:16:32.944Z,14.33
2023-05-20T02:18:59.599Z,14.32
2023-05-20T02:21:26.234Z,14.29
2023-05-20T02:23:53.626Z,14.26
2023-05-20T02:26:20.683Z,14.22
2023-05-20T02:28:51.026Z,14.20
2023-05-20T02:31:18.087Z,14.18
2023-05-20T02:33:45.816Z,14.14
2023-05-20T02:36:12.499Z,14.11
2023-05-20T02:38:39.044Z,14.08
2023-05-20T02:41:05.609Z,14.03
2023-05-20T02:43:33.538Z,14.03
2023-05-20T02:46:01.377Z,14.00
2023-05-20T02:48:27.956Z,13.97
2023-05-20T02:50:54.548Z,13.96
2023-05-20T02:53:21.053Z,13.92
2023-05-20T02:55:48.652Z,13.92
2023-05-20T02:58:15.182Z,13.92
2023-05-20T03:00:41.701Z,13.88
2023-05-20T03:03:10.009Z,13.87
2023-05-20T03:05:37.989Z,13.84
2023-05-20T03:08:09.584Z,13.82
2023-05-20T03:10:39.537Z,13.79
2023-05-20T03:13:11.533Z,13.77
2023-05-20T03:15:38.991Z,13.74
2023-05-20T03:18:07.268Z,13.71
2023-05-20T03:20:36.880Z,13.67
2023-05-20T03:23:04.358Z,13.63
2023-05-20T03:25:31.095Z,13.60
2023-05-20T03:28:00.737Z,13.58
2023-05-20T03:30:28.213Z,13.56
2023-05-20T03:32:59.337Z,13.56
2023-05-20T03:35:26.425Z,13.53
2023-05-20T03:37:53.317Z,13.53
2023-05-20T03:40:22.480Z,13.50
2023-05-20T03:42:50.876Z,13.46
2023-05-20T03:45:19.024Z,13.47
2023-05-20T03:47:59.982Z,13.45
2023-05-20T03:50:26.552Z,13.43
2023-05-20T03:52:53.036Z,13.41
2023-05-20T03:55:22.339Z,13.41
2023-05-20T03:57:48.874Z,13.37
2023-05-20T04:00:16.784Z,13.36
2023-05-20T04:02:43.375Z,13.37
2023-05-20T04:05:12.777Z,13.36
2023-05-20T04:07:39.943Z,13.34
2023-05-20T04:10:08.417Z,13.27
2023-05-20T04:12:36.478Z,13.35
2023-05-20T04:15:03.335Z,13.31
2023-05-20T04:17:38.470Z,13.29
2023-05-20T04:20:07.241Z,13.26
2023-05-20T04:22:35.850Z,13.27
2023-05-20T04:25:04.732Z,13.26
2023-05-20T04:27:33.612Z,13.26
2023-05-20T04:30:02.376Z,13.24
2023-05-20T04:32:34.314Z,13.25
2023-05-20T04:35:02.415Z,13.19
2023-05-20T04:37:33.149Z,13.24
2023-05-20T04:39:59.667Z,13.22
2023-05-20T04:42:27.881Z,13.21
2023-05-20T04:44:54.662Z,13.21
2023-05-20T04:47:21.270Z,13.17
2023-05-20T04:49:47.863Z,13.23
2023-05-20T04:52:14.328Z,13.23
2023-05-20T04:54:41.472Z,13.24
2023-05-20T04:57:09.138Z,13.25
2023-05-20T04:59:35.620Z,13.26
2023-05-20T05:02:02.654Z,13.27
2023-05-20T05:04:29.456Z,13.28
2023-05-20T05:06:56.755Z,13.28
2023-05-20T05:09:23.374Z,13.26
2023-05-20T05:11:50.049Z,13.27
2023-05-20T05:14:17.014Z,13.27
2023-05-20T05:16:43.689Z,13.30
2023-05-20T05:19:10.307Z,13.29
2023-05-20T05:21:39.078Z,13.32
2023-05-20T05:24:05.781Z,13.32
2023-05-20T05:26:32.416Z,13.32
2023-05-20T05:28:58.903Z,13.36
2023-05-20T05:31:25.772Z,13.37
2023-05-20T05:33:52.342Z,13.39
2023-05-20T05:36:18.860Z,13.41
2023-05-20T05:38:45.465Z,13.45
2023-05-20T05:41:11.983Z,13.47
2023-05-20T05:43:38.467Z,13.49
2023-05-20T05:46:06.586Z,13.50
2023-05-20T05:48:33.161Z,13.55
2023-05-20T05:50:59.729Z,13.57
2023-05-20T05:53:26.916Z,13.57
2023-05-20T05:55:53.675Z,13.63
2023-05-20T05:58:20.205Z,13.64
2023-05-20T06:00:46.797Z,13.68
2023-05-20T06:03:14.290Z,13.69
2023-05-20T06:05:40.857Z,13.74
2023-05-20T06:08:07.611Z,13.77
2023-05-20T06:10:35.820Z,13.79
2023-05-20T06:13:02.381Z,13.84
2023-05-20T06:15:28.971Z,13.84
2023-05-20T06:17:56.193Z,13.88
2023-05-20T06:20:23.177Z,13.92
2023-05-20T06:22:50.084Z,13.95
2023-05-20T06:25:16.942Z,13.97
2023-05-20T06:27:43.614Z,13.98
2023-05-20T06:30:13.357Z,14.00
2023-05-20T06:32:39.883Z,14.06
2023-05-20T06:35:06.717Z,14.10
2023-05-20T06:37:33.524Z,14.14
2023-05-20T06:40:00.656Z,14.16
2023-05-20T06:42:28.211Z,14.16
2023-05-20T06:45:05.144Z,14.22
2023-05-20T06:47:36.162Z,14.20
2023-05-20T06:50:03.031Z,14.29
2023-05-20T06:52:30.694Z,14.33
2023-05-20T06:54:57.282Z,14.35
2023-05-20T06:57:24.287Z,14.36
2023-05-20T06:59:51.532Z,14.45
2023-05-20T07:02:22.172Z,14.49
2023-05-20T07:04:49.252Z,14.52
2023-05-20T07:07:17.342Z,14.55
2023-05-20T07:09:45.184Z,14.61
2023-05-20T07:12:11.715Z,14.64
2023-05-20T07:14:38.454Z,14.70
2023-05-20T07:17:05.881Z,14.73
2023-05-20T07:19:33.734Z,14.79
2023-05-20T07:22:00.820Z,14.83
2023-05-20T07:24:36.738Z,14.88
2023-05-20T07:27:04.615Z,14.91
2023-05-20T07:29:31.311Z,14.95
2023-05-20T07:31:58.229Z,15.01
2023-05-20T07:34:24.914Z,15.03
2023-05-20T07:36:51.633Z,15.07
2023-05-20T07:39:18.141Z,15.11
2023-05-20T07:41:44.861Z,15.15
2023-05-20T07:44:13.171Z,15.20
2023-05-20T07:46:43.550Z,15.22
2023-05-20T07:49:11.430Z,15.25
2023-05-20T07:51:39.227Z,15.27
2023-05-20T07:54:06.523Z,15.32
2023-05-20T07:56:33.343Z,15.37
2023-05-20T07:59:01.158Z,15.39
2023-05-20T08:01:31.768Z,15.41
2023-05-20T08:03:58.611Z,15.45
2023-05-20T08:06:27.313Z,15.48
2023-05-20T08:08:55.945Z,15.50
2023-05-20T08:11:28.401Z,15.55
2023-05-20T08:13:55.285Z,15.58
2023-05-20T08:16:24.097Z,15.62
2023-05-20T08:18:51.148Z,15.64
2023-05-20T08:21:20.486Z,15.65
2023-05-20T08:23:47.063Z,15.69
2023-05-20T08:26:13.671Z,15.72
2023-05-20T08:28:42.122Z,15.78
2023-05-20T08:31:08.756Z,15.78
2023-05-20T08:33:35.491Z,15.86
2023-05-20T08:36:02.198Z,15.89
2023-05-20T08:38:29.257Z,15.96
2023-05-20T08:40:57.794Z,15.98
2023-05-20T08:43:25.720Z,16.05
2023-05-20T08:45:52.817Z,16.07
2023-05-20T08:48:23.052Z,16.09
2023-05-20T08:50:53.488Z,16.14
2023-05-20T08:53:22.615Z,16.17
2023-05-20T08:55:54.063Z,16.18
2023-05-20T08:58:21.717Z,16.20
2023-05-20T09:00:48.185Z,16.24
2023-05-20T09:03:14.798Z,16.25
2023-05-20T09:05:41.443Z,16.30
2023-05-20T09:08:09.670Z,16.32
2023-05-20T09:10:37.112Z,16.32
2023-05-20T09:13:05.093Z,16.38
2023-05-20T09:15:33.211Z,16.40
2023-05-20T09:18:02.125Z,16.43
2023-05-20T09:20:29.866Z,16.45
2023-05-20T09:23:00.600Z,16.48
2023-05-20T09:25:27.634Z,16.50
2023-05-20T09:27:54.776Z,16.52
2023-05-20T09:30:22.415Z,16.55
2023-05-20T09:33:00.758Z,16.58
2023-05-20T09:35:28.023Z,16.61
2023-05-20T09:37:56.520Z,16.64
2023-05-20T09:40:27.964Z,16.68
2023-05-20T09:43:03.519Z,16.71
2023-05-20T09:45:30.477Z,16.74
2023-05-20T09:47:58.061Z,16.76
2023-05-20T09:50:25.675Z,16.78
2023-05-20T09:52:53.329Z,16.82
2023-05-20T09:55:22.475Z,16.86
2023-05-20T09:57:48.956Z,16.88
2023-05-20T10:00:19.856Z,16.92
2023-05-20T10:02:53.145Z,16.95
2023-05-20T10:05:31.944Z,16.97
2023-05-20T10:08:18.862Z,17.00
2023-05-20T10:11:03.505Z,17.03
2023-05-20T10:13:56.945Z,17.04
2023-05-20T10:16:48.004Z,17.02
2023-05-20T10:19:33.440Z,17.07
2023-05-20T10:22:11.601Z,17.10
2023-05-20T10:24:43.946Z,17.13
2023-05-20T10:27:15.478Z,17.14
2023-05-20T10:32:29.863Z,17.18
2023-05-20T10:35:05.360Z,17.21
2023-05-20T10:37:40.832Z,17.24
2023-05-20T10:40:08.569Z,17.25
2023-05-20T10:42:35.116Z,17.26
2023-05-20T10:45:01.684Z,17.29
2023-05-20T10:47:28.257Z,17.30
2023-05-20T10:49:54.769Z,17.31
2023-05-20T10:52:21.513Z,17.32
2023-05-20T10:54:54.453Z,17.33
2023-05-20T10:57:21.878Z,17.33
2023-05-20T10:59:49.317Z,17.37
2023-05-20T11:02:16.998Z,17.39
2023-05-20T11:04:44.540Z,17.38
2023-05-20T11:07:11.258Z,17.40
2023-05-20T11:09:37.868Z,17.41
2023-05-20T11:12:04.653Z,17.42
2023-05-20T11:14:31.418Z,17.44
2023-05-20T11:16:59.699Z,17.42
2023-05-20T11:19:27.567Z,17.46
2023-05-20T11:21:54.620Z,17.46
2023-05-20T11:24:26.870Z,17.48
2023-05-20T11:26:57.469Z,17.49
2023-05-20T11:29:26.675Z,17.52
2023-05-20T11:31:53.381Z,17.50
2023-05-20T11:34:26.131Z,17.52
2023-05-20T11:36:57.850Z,17.52
2023-05-20T11:39:25.212Z,17.57
2023-05-20T11:41:51.849Z,17.58
2023-05-20T11:44:20.109Z,17.59
2023-05-20T11:46:48.233Z,17.60
2023-05-20T11:49:15.806Z,17.62
2023-05-20T11:51:43.602Z,17.63
2023-05-20T11:54:10.625Z,17.64
2023-05-20T11:56:38.225Z,17.66
2023-05-20T11:59:06.504Z,17.66
2023-05-20T12:01:37.634Z,17.67
2023-05-20T12:04:05.593Z,17.67
2023-05-20T12:06:32.450Z,17.69
2023-05-20T12:09:07.014Z,17.70
2023-05-20T12:11:35.536Z,17.68
2023-05-20T12:14:02.998Z,17.71
2023-05-20T12:16:32.119Z,17.72
2023-05-20T12:18:58.721Z,17.72
2023-05-20T12:21:25.358Z,17.75
2023-05-20T12:23:57.396Z,17.76
2023-05-20T12:26:25.755Z,17.76
2023-05-20T12:28:52.488Z,17.76
2023-05-20T12:31:19.181Z,17.77
2023-05-20T12:33:45.929Z,17.78
2023-05-20T12:36:13.117Z,17.77
2023-05-20T12:38:39.857Z,17.80
2023-05-20T12:41:06.448Z,17.80
2023-05-20T12:43:34.961Z,17.80
2023-05-20T12:46:03.642Z,17.79
2023-05-20T12:48:30.191Z,17.80
2023-05-20T12:50:56.655Z,17.83
2023-05-20T12:53:23.387Z,17.84
2023-05-20T12:55:49.959Z,17.85
2023-05-20T12:58:16.601Z,17.87
2023-05-20T13:00:43.139Z,17.88
2023-05-20T13:03:09.778Z,17.90
2023-05-20T13:05:36.377Z,17.91
2023-05-20T13:08:03.048Z,17.93
2023-05-20T13:10:29.588Z,17.94
2023-05-20T13:12:56.552Z,17.95
2023-05-20T13:15:23.045Z,17.96
2023-05-20T13:17:49.737Z,17.96
2023-05-20T13:20:19.684Z,17.97
2023-05-20T13:22:46.400Z,17.98
2023-05-20T13:25:12.903Z,17.97
2023-05-20T13:27:39.479Z,18.00
2023-05-20T13:30:06.855Z,17.97
2023-05-20T13:32:33.499Z,18.03
2023-05-20T13:35:00.115Z,18.03
2023-05-20T13:37:26.648Z,18.05
2023-05-20T13:39:53.128Z,18.06
2023-05-20T13:42:19.630Z,18.05
2023-05-20T13:44:46.504Z,18.09
2023-05-20T13:47:13.016Z,18.10
2023-05-20T13:49:39.752Z,18.09
2023-05-20T13:52:06.427Z,18.08
2023-05-20T13:54:32.916Z,18.14
2023-05-20T13:56:59.447Z,18.15
2023-05-20T13:59:25.984Z,18.17
2023-05-20T14:01:53.675Z,18.16
2023-05-20T14:04:20.191Z,18.21
2023-05-20T14:06:46.778Z,18.23
2023-05-20T14:09:13.272Z,18.26
2023-05-20T14:11:39.811Z,18.27
2023-05-20T14:14:06.352Z,18.28
2023-05-20T14:16:33.216Z,18.31
2023-05-20T14:19:01.307Z,18.33
2023-05-20T14:21:28.304Z,18.33
2023-05-20T14:23:54.761Z,18.35
2023-05-20T14:26:21.710Z,18.34
2023-05-20T14:28:48.236Z,18.35
2023-05-20T14:31:14.827Z,18.36
2023-05-20T14:33:41.313Z,18.37
2023-05-20T14:36:07.852Z,18.38
2023-05-20T14:38:34.302Z,18.36
2023-05-20T14:41:00.769Z,18.38
2023-05-20T14:43:27.339Z,18.39
2023-05-20T14:45:53.943Z,18.38
2023-05-20T14:48:20.430Z,18.38
2023-05-20T14:50:49.517Z,18.39
2023-05-20T14:53:17.241Z,18.39
2023-05-20T14:55:43.768Z,18.41
2023-05-20T14:58:10.358Z,18.40
2023-05-20T15:00:36.998Z,18.42
2023-05-20T15:03:03.936Z,18.40
2023-05-20T15:05:30.866Z,18.46
2023-05-20T15:07:57.538Z,18.49
2023-05-20T15:10:24.046Z,18.52
2023-05-20T15:12:51.330Z,18.54
2023-05-20T15:15:18.114Z,18.54
2023-05-20T15:17:44.617Z,18.57
2023-05-20T15:20:11.510Z,18.61
2023-05-20T15:22:38.005Z,18.63
2023-05-20T15:25:04.955Z,18.66
2023-05-20T15:27:31.468Z,18.70
2023-05-20T15:29:57.935Z,18.73
2023-05-20T15:32:24.482Z,18.76
2023-05-20T15:34:51.152Z,18.78
2023-05-20T15:37:17.862Z,18.79
2023-05-20T15:39:44.682Z,18.82
2023-05-20T15:42:13.945Z,18.83
2023-05-20T15:44:40.957Z,18.85
2023-05-20T15:47:07.453Z,18.86
2023-05-20T15:49:34.026Z,18.87
2023-05-20T15:52:03.781Z,18.88
2023-05-20T15:54:31.148Z,18.90
2023-05-20T15:56:58.078Z,18.90
2023-05-20T15:59:24.755Z,18.93
2023-05-20T16:01:51.298Z,18.94
2023-05-20T16:04:17.987Z,18.93
2023-05-20T16:06:44.584Z,18.98
2023-05-20T16:09:11.250Z,18.97
2023-05-20T16:11:37.854Z,18.95
2023-05-20T16:14:04.394Z,18.99
2023-05-20T16:16:31.871Z,19.01
2023-05-20T16:18:59.916Z,19.02
2023-05-20T16:21:26.554Z,19.00
2023-05-20T16:23:53.173Z,19.02
2023-05-20T16:26:19.821Z,19.01
2023-05-20T16:28:47.048Z,19.02
2023-05-20T16:31:13.570Z,19.03
2023-05-20T16:33:40.054Z,19.03
2023-05-20T16:36:06.593Z,19.00
2023-05-20T16:38:34.400Z,19.03
2023-05-20T16:41:01.752Z,19.03
2023-05-20T16:43:28.204Z,19.03
2023-05-20T16:45:54.706Z,19.01
2023-05-20T16:48:21.399Z,19.03
2023-05-20T16:50:47.836Z,19.02
2023-05-20T16:53:16.335Z,19.03
2023-05-20T16:55:43.116Z,19.02
2023-05-20T16:58:09.631Z,19.01
2023-05-20T17:00:36.365Z,19.03
2023-05-20T17:03:03.093Z,19.02
2023-05-20T17:05:29.631Z,19.02
2023-05-20T17:07:59.786Z,19.02
2023-05-20T17:10:28.427Z,19.03
2023-05-20T17:12:54.964Z,19.01
2023-05-20T17:15:23.169Z,19.04
2023-05-20T17:17:49.712Z,19.01
2023-05-20T17:20:16.388Z,19.00
2023-05-20T17:22:42.976Z,19.02
2023-05-20T17:25:09.762Z,19.00
2023-05-20T17:27:36.290Z,19.00
2023-05-20T17:30:02.825Z,18.99
2023-05-20T17:32:29.447Z,18.99
2023-05-20T17:34:56.125Z,18.97
2023-05-20T17:37:22.676Z,18.98
2023-05-20T17:39:49.187Z,18.96
2023-05-20T17:42:15.704Z,18.97
2023-05-20T17:44:42.226Z,18.93
2023-05-20T17:47:08.846Z,18.92
2023-05-20T17:49:35.394Z,18.93
2023-05-20T17:52:02.058Z,18.90
2023-05-20T17:54:28.547Z,18.92
2023-05-20T17:56:55.283Z,18.91
2023-05-20T17:59:21.785Z,18.87
2023-05-20T18:01:48.463Z,18.90
2023-05-20T18:04:15.043Z,18.89
2023-05-20T18:06:41.653Z,18.86
2023-05-20T18:09:08.463Z,18.88
2023-05-20T18:11:35.502Z,18.87
2023-05-20T18:14:02.253Z,18.85
2023-05-20T18:16:30.143Z,18.85
2023-05-20T18:18:57.677Z,18.84
2023-05-20T18:21:24.886Z,18.82
2023-05-20T18:23:52.466Z,18.84
2023-05-20T18:26:19.015Z,18.82
2023-05-20T18:28:45.565Z,18.81
2023-05-20T18:31:12.005Z,18.81
2023-05-20T18:33:38.530Z,18.79
2023-05-20T18:36:06.018Z,18.78
2023-05-20T18:38:32.972Z,18.78
2023-05-20T18:40:59.774Z,18.76
2023-05-20T18:43:26.644Z,18.75
2023-05-20T18:45:53.228Z,18.72
2023-05-20T18:48:26.692Z,18.72
2023-05-20T18:50:54.581Z,18.64
2023-05-20T18:53:21.352Z,18.65
2023-05-20T18:55:47.992Z,18.66
2023-05-20T18:58:14.834Z,18.62
2023-05-20T19:00:42.041Z,18.63
2023-05-20T19:03:08.665Z,18.62
2023-05-20T19:05:35.605Z,18.58
2023-05-20T19:08:03.038Z,18.58
2023-05-20T19:10:29.896Z,18.55
2023-05-20T19:12:56.612Z,18.55
2023-05-20T19:15:23.182Z,18.55
2023-05-20T19:17:49.816Z,18.54
2023-05-20T19:20:16.413Z,18.52
2023-05-20T19:22:42.953Z,18.52
2023-05-20T19:25:09.758Z,18.50
2023-05-20T19:27:36.362Z,18.49
2023-05-20T19:30:03.187Z,18.45
2023-05-20T19:32:29.732Z,18.45
2023-05-20T19:34:56.221Z,18.41
2023-05-20T19:37:23.307Z,18.41
2023-05-20T19:39:50.107Z,18.40
2023-05-20T19:42:16.690Z,18.37
2023-05-20T19:44:46.350Z,18.36
2023-05-20T19:47:12.871Z,18.32
2023-05-20T19:49:39.332Z,18.32
2023-05-20T19:52:06.871Z,18.29
2023-05-20T19:54:33.770Z,18.25
2023-05-20T19:57:00.248Z,18.24
2023-05-20T19:59:26.892Z,18.23
2023-05-20T20:01:53.421Z,18.21
2023-05-20T20:04:20.054Z,18.20
2023-05-20T20:06:47.983Z,18.18
2023-05-20T20:09:14.600Z,18.15
2023-05-20T20:11:41.071Z,18.15
2023-05-20T20:14:07.505Z,18.14
2023-05-20T20:16:34.691Z,18.12
2023-05-20T20:19:01.351Z,18.10
2023-05-20T20:21:27.948Z,18.08
2023-05-20T20:23:54.442Z,18.07
2023-05-20T20:26:25.649Z,18.06
2023-05-20T20:28:52.289Z,18.06
2023-05-20T20:31:18.740Z,18.04
2023-05-20T20:33:45.231Z,18.01
2023-05-20T20:36:11.710Z,18.00
2023-05-20T20:38:38.582Z,18.00
2023-05-20T20:41:05.110Z,17.97
2023-05-20T20:43:34.587Z,17.96
2023-05-20T20:46:01.169Z,17.95
2023-05-20T20:48:27.708Z,17.93
2023-05-20T20:50:54.511Z,17.91
2023-05-20T20:53:21.774Z,17.90
2023-05-20T20:55:48.354Z,17.89
2023-05-20T20:58:15.456Z,17.88
2023-05-20T21:00:44.851Z,17.82
2023-05-20T21:03:12.635Z,17.83
2023-05-20T21:05:39.428Z,17.82
2023-05-20T21:08:08.299Z,17.79
2023-05-20T21:10:36.974Z,17.79
2023-05-20T21:13:03.868Z,17.77
2023-05-20T21:15:30.349Z,17.76
2023-05-20T21:17:56.902Z,17.73
2023-05-20T21:20:23.745Z,17.72
2023-05-20T21:22:50.238Z,17.70
2023-05-20T21:25:16.831Z,17.69
2023-05-20T21:27:43.274Z,17.66
2023-05-20T21:30:11.159Z,17.66
2023-05-20T21:32:38.057Z,17.64
2023-05-20T21:35:04.961Z,17.63
2023-05-20T21:37:31.429Z,17.61
2023-05-20T21:39:57.918Z,17.59
2023-05-20T21:42:24.378Z,17.55
2023-05-20T21:44:51.372Z,17.55
2023-05-20T21:47:19.580Z,17.53
2023-05-20T21:49:47.364Z,17.50
2023-05-20T21:52:14.218Z,17.50
2023-05-20T21:54:41.366Z,17.48
2023-05-20T21:57:07.889Z,17.46
2023-05-20T21:59:34.396Z,17.45
2023-05-20T22:02:01.179Z,17.41
2023-05-20T22:04:28.635Z,17.41
2023-05-20T22:06:56.508Z,17.39
2023-05-20T22:09:23.103Z,17.38
2023-05-20T22:11:49.607Z,17.35
2023-05-20T22:14:16.708Z,17.33
2023-05-20T22:16:46.505Z,17.31
2023-05-20T22:19:15.110Z,17.29
2023-05-20T22:21:50.079Z,17.28
2023-05-20T22:24:17.506Z,17.26
2023-05-20T22:26:43.997Z,17.23
2023-05-20T22:29:10.481Z,17.24
2023-05-20T22:31:37.834Z,17.23
2023-05-20T22:34:05.355Z,17.20
2023-05-20T22:36:34.249Z,17.18
2023-05-20T22:39:04.690Z,17.13
2023-05-20T22:41:31.370Z,17.13
2023-05-20T22:43:58.484Z,17.09
2023-05-20T22:46:25.667Z,17.11
2023-05-20T22:48:52.923Z,17.09
2023-05-20T22:51:24.491Z,17.08
2023-05-20T22:53:51.039Z,17.06
2023-05-20T22:56:18.285Z,17.06
2023-05-20T22:58:45.775Z,17.02
2023-05-20T23:01:12.765Z,17.03
2023-05-20T23:03:39.897Z,17.01
2023-05-20T23:06:06.563Z,17.01
2023-05-20T23:08:33.145Z,16.98
2023-05-20T23:10:59.646Z,16.97
2023-05-20T23:13:26.419Z,16.96
2023-05-20T23:15:52.888Z,16.93
2023-05-20T23:18:19.342Z,16.91
2023-05-20T23:20:45.933Z,16.88
2023-05-20T23:23:12.488Z,16.88
2023-05-20T23:25:39.514Z,16.80
2023-05-20T23:28:06.185Z,16.84
2023-05-20T23:30:32.686Z,16.83
2023-05-20T23:32:59.772Z,16.81
2023-05-20T23:35:26.404Z,16.78
2023-05-20T23:37:52.866Z,16.74
2023-05-20T23:40:19.440Z,16.72
2023-05-20T23:42:45.902Z,16.72
2023-05-20T23:45:13.081Z,16.65
2023-05-20T23:47:39.705Z,16.65
2023-05-20T23:50:06.652Z,16.64
2023-05-20T23:52:33.126Z,16.61
2023-05-20T23:55:00.229Z,16.59
2023-05-20T23:57:26.798Z,16.55
2023-05-20T23:59:53.285Z,16.54
